Emine Anne — TCBX9 — position and weather

sailwx.info

Track history (hours):
 
Tides and Currents Weather Stations Pressure Air Temp Water Temp Dewpoint Dewpoint Depression Visibility Wind Speed Wind Dir Waves Ship Positions

Emine Anne

Last reported at 2016-May-24 23:25 UTC. Time now 2016-May-27 18:11 UTC.
Position N 44°03' E 035°17'.

Length 69 m; draft 3.6 m.

Type: Cargo ship. MMSI: 271002305.

Date/timePositionNaut miles runAvg speedWind from/ knotsBaromVisibWave heightAir tempDewpointWater temp
2016-May-24 23:25N 44°03' E 035°17'41 8.0
2016-May-24 18:15N 44°33' E 035°56'5 7.5
2016-May-24 17:33N 44°37' E 036°01'8 7.7
2016-May-24 16:33N 44°43' E 036°08'31 7.5
2016-May-24 12:27N 45°10' E 036°28'7 7.8
2016-May-24 11:34N 45°17' E 036°29'8 7.9
2016-May-24 10:33N 45°21' E 036°39'8 7.6
2016-May-24 09:33N 45°29' E 036°40'97 7.4
2016-May-23 20:32N 46°54' E 037°47'8 7.9
2016-May-23 19:34N 46°56' E 037°57'8 7.8
2016-May-23 18:33N 46°59' E 038°08'8 7.8
2016-May-23 17:33N 47°01' E 038°19'8 7.7
2016-May-23 16:33N 47°01' E 038°30'22 1.4
2016-May-23 01:11N 47°12' E 038°57'0 0.0
2016-May-22 23:14N 47°12' E 038°57'0 0.0
2016-May-22 22:28N 47°12' E 038°57'0 0.0
2016-May-22 21:33N 47°12' E 038°57'0 0.0
2016-May-22 20:32N 47°12' E 038°57'0 0.0
2016-May-22 18:28N 47°12' E 038°57'0 0.0
2016-May-22 15:20N 47°12' E 038°57'11 2.0
2016-May-22 10:04N 47°03' E 038°50'0 0.0
2016-May-22 09:25N 47°03' E 038°50'0 0.0
2016-May-21 23:09N 47°03' E 038°50'0 0.0
2016-May-21 22:04N 47°03' E 038°50'0 0.0
2016-May-21 21:25N 47°03' E 038°50'0 0.0
2016-May-21 20:32N 47°03' E 038°50'0 0.0
2016-May-21 19:31N 47°03' E 038°50'16 1.2
2016-May-21 05:33N 46°60' E 038°26'9 8.6
2016-May-21 04:33N 46°60' E 038°14'9 8.8
2016-May-21 03:33N 46°57' E 038°01'102 8.5
2016-May-20 15:33N 45°30' E 036°43'9 9.1
2016-May-20 14:33N 45°21' E 036°40'8 8.5
2016-May-20 13:34N 45°18' E 036°29'8 6.6
2016-May-20 12:19N 45°09' E 036°29'75 7.7
2016-May-20 02:33N 44°33' E 034°56'9 8.7
2016-May-20 01:33N 44°29' E 034°45'9 8.8
2016-May-20 00:33N 44°26' E 034°34'9 8.6
2016-May-19 23:33N 44°23' E 034°22'10 8.7
2016-May-19 22:24N 44°21' E 034°08'  
2016-May-15 16:28N 40°58' E 028°55'5 5.1
2016-May-15 15:28N 40°53' E 028°54'7 8.2
2016-May-15 14:33N 40°48' E 028°48'10 7.9
2016-May-15 13:21N 40°42' E 028°37'  
Track history (hours):
 
Tides and Currents Weather Stations Pressure Air Temp Water Temp Dewpoint Dewpoint Depression Visibility Wind Speed Wind Dir Waves Ship Positions

Emine Anne

Last reported at 2016-May-24 23:25 UTC. Time now 2016-May-27 18:11 UTC.
Position N 44°03' E 035°17'.

Length 69 m; draft 3.6 m.

Type: Cargo ship. MMSI: 271002305.

Date/timePositionNaut miles runAvg speedWind from/ knotsBaromVisibWave heightAir tempDewpointWater temp
2016-May-24 23:25N 44°03' E 035°17'41 8.0
2016-May-24 18:15N 44°33' E 035°56'5 7.5
2016-May-24 17:33N 44°37' E 036°01'8 7.7
2016-May-24 16:33N 44°43' E 036°08'31 7.5
2016-May-24 12:27N 45°10' E 036°28'7 7.8
2016-May-24 11:34N 45°17' E 036°29'8 7.9
2016-May-24 10:33N 45°21' E 036°39'8 7.6
2016-May-24 09:33N 45°29' E 036°40'97 7.4
2016-May-23 20:32N 46°54' E 037°47'8 7.9
2016-May-23 19:34N 46°56' E 037°57'8 7.8
2016-May-23 18:33N 46°59' E 038°08'8 7.8
2016-May-23 17:33N 47°01' E 038°19'8 7.7
2016-May-23 16:33N 47°01' E 038°30'22 1.4
2016-May-23 01:11N 47°12' E 038°57'0 0.0
2016-May-22 23:14N 47°12' E 038°57'0 0.0
2016-May-22 22:28N 47°12' E 038°57'0 0.0
2016-May-22 21:33N 47°12' E 038°57'0 0.0
2016-May-22 20:32N 47°12' E 038°57'0 0.0
2016-May-22 18:28N 47°12' E 038°57'0 0.0
2016-May-22 15:20N 47°12' E 038°57'11 2.0
2016-May-22 10:04N 47°03' E 038°50'0 0.0
2016-May-22 09:25N 47°03' E 038°50'0 0.0
2016-May-21 23:09N 47°03' E 038°50'0 0.0
2016-May-21 22:04N 47°03' E 038°50'0 0.0
2016-May-21 21:25N 47°03' E 038°50'0 0.0
2016-May-21 20:32N 47°03' E 038°50'0 0.0
2016-May-21 19:31N 47°03' E 038°50'16 1.2
2016-May-21 05:33N 46°60' E 038°26'9 8.6
2016-May-21 04:33N 46°60' E 038°14'9 8.8
2016-May-21 03:33N 46°57' E 038°01'102 8.5
2016-May-20 15:33N 45°30' E 036°43'9 9.1
2016-May-20 14:33N 45°21' E 036°40'8 8.5
2016-May-20 13:34N 45°18' E 036°29'8 6.6
2016-May-20 12:19N 45°09' E 036°29'75 7.7
2016-May-20 02:33N 44°33' E 034°56'9 8.7
2016-May-20 01:33N 44°29' E 034°45'9 8.8
2016-May-20 00:33N 44°26' E 034°34'9 8.6
2016-May-19 23:33N 44°23' E 034°22'10 8.7
2016-May-19 22:24N 44°21' E 034°08'  
2016-May-15 16:28N 40°58' E 028°55'5 5.1
2016-May-15 15:28N 40°53' E 028°54'7 8.2
2016-May-15 14:33N 40°48' E 028°48'10 7.9
2016-May-15 13:21N 40°42' E 028°37'  

Dump ship's entire track history